Time;durP1;ratioP1;P1;durP2;ratioP2;P2;SDS_P1;SDS_P2;PMS_P1;PMS_P2;Temp;Humidity;BMP_temperature;BMP_pressure;BME280_temperature;BME280_humidity;BME280_pressure;Samples;Min_cycle;Max_cycle;Signal;HPM_P1;HPM_P2
2022/08/06 00:00:05;;;;;;;;;;;16.20;96.70;;;;;;5056507;28;19909;-69
2022/08/06 00:02:32;;;;;;;;;;;16.20;97.20;;;;;;5056537;28;19909;-69
2022/08/06 00:05:00;;;;;;;;;;;16.20;97.50;;;;;;5056687;28;19916;-68
2022/08/06 00:07:27;;;;;;;;;;;16.30;97.80;;;;;;5056432;28;19923;-69
2022/08/06 00:09:53;;;;;;;;;;;16.30;97.30;;;;;;5064676;28;19912;-69
2022/08/06 00:12:20;;;;;;;;;;;16.30;97.20;;;;;;5058128;28;19909;-69
2022/08/06 00:14:47;;;;;;;;;;;16.30;96.80;;;;;;5055693;28;19962;-69
2022/08/06 00:17:14;;;;;;;;;;;16.20;97.00;;;;;;5055658;28;20360;-68
2022/08/06 00:19:40;;;;;;;;;;;16.30;97.10;;;;;;5055420;28;20425;-69
2022/08/06 00:22:10;;;;;;;;;;;16.30;97.30;;;;;;5055303;28;20279;-69
2022/08/06 00:24:36;;;;;;;;;;;16.30;97.70;;;;;;5055458;28;19962;-71
2022/08/06 00:27:03;;;;;;;;;;;16.30;98.30;;;;;;5055241;28;19917;-69
2022/08/06 00:29:30;;;;;;;;;;;16.50;97.20;;;;;;5055131;28;19909;-69
2022/08/06 00:31:57;;;;;;;;;;;16.60;96.60;;;;;;5055334;28;19916;-69
2022/08/06 00:34:26;;;;;;;;;;;16.50;96.80;;;;;;5054916;28;19909;-69
2022/08/06 00:36:53;;;;;;;;;;;16.60;97.10;;;;;;5055219;28;19909;-68
2022/08/06 00:39:19;;;;;;;;;;;16.50;97.40;;;;;;5055260;28;19920;-69
2022/08/06 00:41:46;;;;;;;;;;;16.60;96.50;;;;;;5055134;28;19909;-69
2022/08/06 00:44:14;;;;;;;;;;;16.60;97.00;;;;;;5067453;28;19920;-69
2022/08/06 00:46:41;;;;;;;;;;;16.70;97.40;;;;;;5096082;28;19923;-69
2022/08/06 00:49:08;;;;;;;;;;;16.70;97.00;;;;;;5095734;28;19912;-70
2022/08/06 00:51:35;;;;;;;;;;;16.80;96.10;;;;;;5095653;28;19913;-69
2022/08/06 00:54:02;;;;;;;;;;;16.80;95.60;;;;;;5095651;28;19961;-69
2022/08/06 00:56:28;;;;;;;;;;;16.90;94.70;;;;;;5095964;28;19915;-69
2022/08/06 00:58:55;;;;;;;;;;;16.90;94.80;;;;;;5095615;28;20025;-69
2022/08/06 01:01:22;;;;;;;;;;;16.90;94.50;;;;;;5095617;28;19914;-69
2022/08/06 01:03:49;;;;;;;;;;;16.90;94.90;;;;;;5095707;28;20342;-69
2022/08/06 01:06:15;;;;;;;;;;;17.00;94.10;;;;;;5095244;28;19961;-69
2022/08/06 01:08:42;;;;;;;;;;;17.00;94.40;;;;;;5094824;28;19915;-69
2022/08/06 01:11:09;;;;;;;;;;;17.10;95.20;;;;;;5095701;28;19908;-69
2022/08/06 01:13:35;;;;;;;;;;;17.30;94.50;;;;;;5095397;28;20373;-68
2022/08/06 01:16:08;;;;;;;;;;;17.50;93.70;;;;;;5095158;28;20375;-69
2022/08/06 01:18:37;;;;;;;;;;;17.80;94.50;;;;;;5095390;28;19919;-69
2022/08/06 01:21:21;;;;;;;;;;;17.90;94.30;;;;;;5095412;28;19915;-69
2022/08/06 01:24:20;;;;;;;;;;;18.00;94.50;;;;;;5095246;28;19912;-69
2022/08/06 01:26:51;;;;;;;;;;;17.90;93.70;;;;;;5071966;28;19916;-69
2022/08/06 01:29:28;;;;;;;;;;;17.90;93.50;;;;;;5095201;28;19995;-69
2022/08/06 01:32:09;;;;;;;;;;;17.80;94.30;;;;;;5095165;28;19912;-69
2022/08/06 01:34:36;;;;;;;;;;;17.80;93.20;;;;;;5093805;28;20354;-69
2022/08/06 01:37:17;;;;;;;;;;;17.70;93.00;;;;;;5095011;28;19916;-70
2022/08/06 01:39:46;;;;;;;;;;;17.50;92.80;;;;;;5094905;28;19924;-68
2022/08/06 01:42:14;;;;;;;;;;;17.40;92.40;;;;;;5094730;28;20057;-69
2022/08/06 01:44:42;;;;;;;;;;;17.20;92.60;;;;;;5094580;28;19943;-68
2022/08/06 01:47:11;;;;;;;;;;;17.20;92.40;;;;;;5094733;28;19917;-68
2022/08/06 01:49:39;;;;;;;;;;;17.10;92.60;;;;;;5094907;28;20251;-68
2022/08/06 01:52:07;;;;;;;;;;;17.10;92.40;;;;;;5094110;28;19908;-69
2022/08/06 01:54:45;;;;;;;;;;;17.10;93.00;;;;;;5094557;28;20331;-68
2022/08/06 01:57:12;;;;;;;;;;;17.10;92.40;;;;;;5094546;28;20419;-68
2022/08/06 01:59:49;;;;;;;;;;;17.10;92.70;;;;;;5094250;28;19961;-69
2022/08/06 02:02:18;;;;;;;;;;;17.10;91.70;;;;;;5094368;28;19908;-69
2022/08/06 02:04:46;;;;;;;;;;;17.10;91.80;;;;;;5094385;28;19912;-68
2022/08/06 02:07:15;;;;;;;;;;;17.00;92.60;;;;;;5094040;28;19917;-69
2022/08/06 02:09:43;;;;;;;;;;;17.10;91.90;;;;;;5094175;28;19908;-69
2022/08/06 02:12:11;;;;;;;;;;;17.20;91.90;;;;;;5093812;28;19908;-69
2022/08/06 02:14:41;;;;;;;;;;;17.30;92.00;;;;;;5094087;28;19908;-68
2022/08/06 02:17:08;;;;;;;;;;;17.50;92.00;;;;;;5094073;28;20523;-69
2022/08/06 02:19:37;;;;;;;;;;;17.60;91.20;;;;;;5094040;28;19912;-69
2022/08/06 02:22:04;;;;;;;;;;;17.60;91.70;;;;;;5093848;28;20427;-68
2022/08/06 02:24:31;;;;;;;;;;;17.70;92.20;;;;;;5092496;28;19914;-69
2022/08/06 02:27:00;;;;;;;;;;;17.70;91.70;;;;;;5093310;28;20514;-68
2022/08/06 02:29:27;;;;;;;;;;;17.80;91.70;;;;;;5093531;28;19958;-69
2022/08/06 02:31:54;;;;;;;;;;;17.90;91.40;;;;;;5093634;28;19915;-68
2022/08/06 02:34:22;;;;;;;;;;;18.00;90.50;;;;;;5093285;28;20244;-68
2022/08/06 02:36:52;;;;;;;;;;;18.00;90.40;;;;;;5093717;28;19912;-69
2022/08/06 02:39:28;;;;;;;;;;;18.00;90.90;;;;;;5075494;28;19919;-69
2022/08/06 02:42:02;;;;;;;;;;;18.00;90.50;;;;;;5058531;28;20308;-68
2022/08/06 02:44:32;;;;;;;;;;;18.00;91.50;;;;;;5052443;28;19921;-68
2022/08/06 02:47:17;;;;;;;;;;;18.10;91.00;;;;;;5052652;28;20279;-69
2022/08/06 02:49:50;;;;;;;;;;;18.10;92.00;;;;;;5052025;28;20233;-69
2022/08/06 02:52:37;;;;;;;;;;;18.20;90.40;;;;;;5052375;28;20329;-69
2022/08/06 02:55:11;;;;;;;;;;;18.40;91.20;;;;;;5051134;28;19909;-69
2022/08/06 02:57:40;;;;;;;;;;;18.30;88.90;;;;;;5052383;28;19909;-69
2022/08/06 03:00:08;;;;;;;;;;;18.40;90.60;;;;;;5051982;28;19915;-69
2022/08/06 03:02:39;;;;;;;;;;;18.20;89.00;;;;;;5052575;28;19916;-69
2022/08/06 03:05:07;;;;;;;;;;;18.10;88.70;;;;;;5052306;28;19913;-69
2022/08/06 03:07:34;;;;;;;;;;;18.10;89.40;;;;;;5052344;28;20009;-69
2022/08/06 03:10:02;;;;;;;;;;;18.10;90.10;;;;;;5052049;28;19909;-69
2022/08/06 03:12:29;;;;;;;;;;;18.10;90.30;;;;;;5052207;28;20317;-69
2022/08/06 03:14:57;;;;;;;;;;;18.00;90.80;;;;;;5052286;28;19913;-69
2022/08/06 03:17:23;;;;;;;;;;;18.00;88.50;;;;;;5052406;28;20364;-69
2022/08/06 03:19:51;;;;;;;;;;;17.90;88.00;;;;;;5052451;28;19934;-68
2022/08/06 03:22:19;;;;;;;;;;;17.90;89.90;;;;;;5051836;28;19909;-69
2022/08/06 03:24:46;;;;;;;;;;;17.90;88.10;;;;;;5052368;28;20381;-69
2022/08/06 03:27:15;;;;;;;;;;;17.90;87.90;;;;;;5051850;28;19913;-69
2022/08/06 03:29:42;;;;;;;;;;;17.80;88.50;;;;;;5052247;28;20351;-69
2022/08/06 03:32:09;;;;;;;;;;;17.80;88.50;;;;;;5054691;28;19909;-68
2022/08/06 03:34:36;;;;;;;;;;;17.80;89.00;;;;;;5056223;28;19982;-68
2022/08/06 03:37:03;;;;;;;;;;;17.80;88.70;;;;;;5056299;28;19909;-68
2022/08/06 03:39:31;;;;;;;;;;;17.90;87.70;;;;;;5056084;28;19908;-69
2022/08/06 03:41:58;;;;;;;;;;;18.00;87.80;;;;;;5056012;28;19908;-69
2022/08/06 03:44:25;;;;;;;;;;;18.00;88.10;;;;;;5055888;28;19952;-68
2022/08/06 03:47:04;;;;;;;;;;;18.00;88.10;;;;;;5055980;28;19927;-70
2022/08/06 03:49:34;;;;;;;;;;;18.10;88.80;;;;;;5055950;28;20417;-69
2022/08/06 03:52:02;;;;;;;;;;;18.10;90.40;;;;;;5055817;28;20374;-69
2022/08/06 03:54:29;;;;;;;;;;;18.10;88.90;;;;;;5055873;28;19951;-69
2022/08/06 03:56:59;;;;;;;;;;;17.90;88.70;;;;;;5055766;28;20359;-69
2022/08/06 03:59:27;;;;;;;;;;;17.80;90.40;;;;;;5055664;28;19962;-69
2022/08/06 04:01:56;;;;;;;;;;;17.70;89.60;;;;;;5055623;28;19952;-69
2022/08/06 04:04:24;;;;;;;;;;;17.60;90.00;;;;;;5055493;28;19916;-69
2022/08/06 04:06:52;;;;;;;;;;;17.70;90.00;;;;;;5055649;28;20003;-69
2022/08/06 04:09:19;;;;;;;;;;;17.80;88.40;;;;;;5055539;28;19908;-69
2022/08/06 04:11:46;;;;;;;;;;;17.80;90.40;;;;;;5055304;28;20359;-68
2022/08/06 04:14:13;;;;;;;;;;;17.90;89.50;;;;;;5055302;28;20386;-68
2022/08/06 04:16:40;;;;;;;;;;;18.00;90.00;;;;;;5055415;28;19909;-68
2022/08/06 04:19:09;;;;;;;;;;;18.10;90.10;;;;;;5053970;28;19916;-68
2022/08/06 04:21:36;;;;;;;;;;;18.10;88.70;;;;;;5055119;28;20686;-68
2022/08/06 04:24:03;;;;;;;;;;;18.00;88.80;;;;;;5055145;28;20373;-68
2022/08/06 04:26:31;;;;;;;;;;;17.90;89.10;;;;;;5070283;28;19913;-69
2022/08/06 04:29:00;;;;;;;;;;;17.80;89.20;;;;;;5055182;28;19915;-68
2022/08/06 04:31:28;;;;;;;;;;;17.80;89.60;;;;;;5055013;28;19986;-69
2022/08/06 04:33:55;;;;;;;;;;;17.70;89.50;;;;;;5055011;28;19944;-69
2022/08/06 04:36:22;;;;;;;;;;;17.60;89.80;;;;;;5054959;28;19909;-69
2022/08/06 04:38:49;;;;;;;;;;;17.60;88.50;;;;;;5055034;28;19999;-69
2022/08/06 04:41:16;;;;;;;;;;;17.60;90.50;;;;;;5055142;28;19982;-69
2022/08/06 04:43:42;;;;;;;;;;;17.50;90.10;;;;;;5053271;28;19931;-69
2022/08/06 04:46:09;;;;;;;;;;;17.50;90.80;;;;;;5054500;28;20375;-69
2022/08/06 04:48:36;;;;;;;;;;;17.50;90.00;;;;;;5054837;28;19920;-69
2022/08/06 04:51:04;;;;;;;;;;;17.50;90.40;;;;;;5054497;28;20410;-69
2022/08/06 04:53:36;;;;;;;;;;;17.50;90.10;;;;;;5054419;28;19913;-69
2022/08/06 04:56:03;;;;;;;;;;;17.50;90.00;;;;;;5054470;28;19948;-69
2022/08/06 04:58:30;;;;;;;;;;;17.50;90.90;;;;;;5054506;28;19962;-69
2022/08/06 05:00:56;;;;;;;;;;;17.60;91.10;;;;;;5054551;28;19962;-68
2022/08/06 05:03:23;;;;;;;;;;;17.50;90.80;;;;;;5054560;28;19916;-69
2022/08/06 05:06:15;;;;;;;;;;;17.60;91.50;;;;;;5054517;28;19916;-69
2022/08/06 05:08:43;;;;;;;;;;;17.60;90.20;;;;;;5053919;28;19924;-68
2022/08/06 05:11:16;;;;;;;;;;;17.60;90.30;;;;;;5054414;28;19909;-69
2022/08/06 05:13:44;;;;;;;;;;;17.60;90.50;;;;;;5054307;28;19908;-68
2022/08/06 05:16:13;;;;;;;;;;;17.60;90.80;;;;;;5054153;28;20022;-69
2022/08/06 05:18:44;;;;;;;;;;;17.60;90.70;;;;;;5054281;28;20380;-68
2022/08/06 05:21:12;;;;;;;;;;;17.60;90.70;;;;;;5054355;28;19909;-68
2022/08/06 05:23:45;;;;;;;;;;;17.60;91.10;;;;;;5054210;28;19909;-69
2022/08/06 05:26:12;;;;;;;;;;;17.50;91.80;;;;;;5054001;28;19912;-69
2022/08/06 05:28:42;;;;;;;;;;;17.60;90.90;;;;;;5053974;28;19916;-69
2022/08/06 05:31:09;;;;;;;;;;;17.60;91.40;;;;;;5053997;28;19909;-68
2022/08/06 05:33:37;;;;;;;;;;;17.60;91.00;;;;;;5054156;28;19909;-69
2022/08/06 05:36:08;;;;;;;;;;;17.60;91.10;;;;;;5053634;28;19916;-69
2022/08/06 05:38:36;;;;;;;;;;;17.60;90.70;;;;;;5053808;28;20525;-69
2022/08/06 05:41:03;;;;;;;;;;;17.60;91.00;;;;;;5053786;28;19913;-69
2022/08/06 05:43:30;;;;;;;;;;;17.60;91.20;;;;;;5053681;28;19909;-69
2022/08/06 05:45:59;;;;;;;;;;;17.50;91.20;;;;;;5053624;28;19971;-69
2022/08/06 05:48:30;;;;;;;;;;;17.40;90.50;;;;;;5053560;28;19917;-69
2022/08/06 05:51:00;;;;;;;;;;;17.50;91.40;;;;;;5053636;28;19916;-69
2022/08/06 05:53:31;;;;;;;;;;;17.50;91.40;;;;;;5053243;28;19916;-68
2022/08/06 05:56:06;;;;;;;;;;;17.40;91.90;;;;;;5053514;28;20008;-69
2022/08/06 05:58:47;;;;;;;;;;;17.40;90.20;;;;;;5053431;28;19909;-69
2022/08/06 06:01:14;;;;;;;;;;;17.40;90.00;;;;;;5053476;28;19908;-68
2022/08/06 06:03:42;;;;;;;;;;;17.50;90.70;;;;;;5053328;28;19944;-68
2022/08/06 06:06:08;;;;;;;;;;;17.40;90.90;;;;;;5053103;28;19944;-68
2022/08/06 06:08:36;;;;;;;;;;;17.30;90.40;;;;;;5053221;28;19967;-69
2022/08/06 06:11:03;;;;;;;;;;;17.30;90.30;;;;;;5051883;28;19908;-68
2022/08/06 06:13:30;;;;;;;;;;;17.20;90.70;;;;;;5053308;28;19909;-68
2022/08/06 06:16:16;;;;;;;;;;;17.20;91.10;;;;;;5052950;28;19909;-68
2022/08/06 06:18:53;;;;;;;;;;;17.20;91.00;;;;;;5052698;28;19919;-69
2022/08/06 06:21:37;;;;;;;;;;;17.10;90.70;;;;;;5052955;28;19909;-68
2022/08/06 06:24:04;;;;;;;;;;;17.10;91.00;;;;;;5052607;28;20347;-69
2022/08/06 06:26:37;;;;;;;;;;;17.10;90.60;;;;;;5052500;28;19932;-68
2022/08/06 06:29:12;;;;;;;;;;;17.00;91.50;;;;;;5052917;28;19916;-69
2022/08/06 06:31:40;;;;;;;;;;;17.00;90.70;;;;;;5052837;28;19915;-69
2022/08/06 06:34:15;;;;;;;;;;;17.00;90.80;;;;;;5052337;28;20421;-69
2022/08/06 06:36:48;;;;;;;;;;;17.00;90.80;;;;;;5052785;28;20398;-69
2022/08/06 06:39:33;;;;;;;;;;;17.00;90.60;;;;;;5052691;28;19916;-69
2022/08/06 06:42:20;;;;;;;;;;;17.00;90.50;;;;;;5052710;28;19916;-69
2022/08/06 06:45:02;;;;;;;;;;;16.90;90.90;;;;;;5052481;28;19968;-69
2022/08/06 06:47:36;;;;;;;;;;;16.90;90.80;;;;;;5052653;28;19971;-69
2022/08/06 06:50:11;;;;;;;;;;;16.90;90.50;;;;;;5052742;28;19999;-69
2022/08/06 06:52:39;;;;;;;;;;;16.80;90.70;;;;;;5052562;28;20338;-69
2022/08/06 06:55:05;;;;;;;;;;;16.80;90.70;;;;;;5052569;28;19913;-69
2022/08/06 06:57:34;;;;;;;;;;;16.70;90.60;;;;;;5052414;28;20255;-69
2022/08/06 07:00:04;;;;;;;;;;;16.70;91.80;;;;;;5052220;28;19909;-69
2022/08/06 07:02:31;;;;;;;;;;;16.60;90.80;;;;;;5052645;28;19909;-70
2022/08/06 07:05:02;;;;;;;;;;;16.60;91.50;;;;;;5051073;28;19931;-69
2022/08/06 07:07:31;;;;;;;;;;;16.50;91.10;;;;;;5052078;28;19917;-69
2022/08/06 07:09:58;;;;;;;;;;;16.50;92.50;;;;;;5052283;28;19909;-68
2022/08/06 07:12:26;;;;;;;;;;;16.40;92.10;;;;;;5051946;28;19924;-68
2022/08/06 07:14:55;;;;;;;;;;;16.40;91.50;;;;;;5052144;28;19991;-68
2022/08/06 07:17:23;;;;;;;;;;;16.40;91.60;;;;;;5052292;28;20263;-69
2022/08/06 07:19:50;;;;;;;;;;;16.40;91.30;;;;;;5052302;28;19916;-68
2022/08/06 07:22:18;;;;;;;;;;;16.40;91.60;;;;;;5052046;28;19913;-68
2022/08/06 07:24:45;;;;;;;;;;;16.30;91.50;;;;;;5052081;28;20364;-69
2022/08/06 07:27:12;;;;;;;;;;;16.30;92.00;;;;;;5052161;28;19924;-68
2022/08/06 07:29:40;;;;;;;;;;;16.30;92.50;;;;;;5052196;28;20363;-69
2022/08/06 07:32:10;;;;;;;;;;;16.20;92.30;;;;;;5052065;28;19909;-69
2022/08/06 07:34:38;;;;;;;;;;;16.20;92.20;;;;;;5052344;28;19945;-68
2022/08/06 07:37:05;;;;;;;;;;;16.10;92.80;;;;;;5052350;28;19913;-68
2022/08/06 07:39:34;;;;;;;;;;;16.10;93.40;;;;;;5051949;28;19920;-69
2022/08/06 07:42:02;;;;;;;;;;;16.10;92.20;;;;;;5051932;28;19913;-68
2022/08/06 07:44:29;;;;;;;;;;;16.00;92.30;;;;;;5051883;28;19928;-69
2022/08/06 07:46:59;;;;;;;;;;;16.00;92.40;;;;;;5051897;28;19917;-68
2022/08/06 07:49:29;;;;;;;;;;;16.00;92.40;;;;;;5049574;28;19912;-68
2022/08/06 07:51:57;;;;;;;;;;;16.00;92.80;;;;;;5049733;28;19909;-68
2022/08/06 07:54:25;;;;;;;;;;;16.00;93.60;;;;;;5049764;28;19948;-68
2022/08/06 07:56:52;;;;;;;;;;;15.90;92.90;;;;;;5053032;28;19909;-68
2022/08/06 07:59:20;;;;;;;;;;;15.90;93.30;;;;;;5050541;28;20553;-68
2022/08/06 08:01:48;;;;;;;;;;;15.80;93.20;;;;;;5050627;28;19917;-69
2022/08/06 08:07:00;;;;;;;;;;;15.80;93.90;;;;;;5049927;28;19923;-69
2022/08/06 08:09:27;;;;;;;;;;;15.80;93.00;;;;;;5050025;28;19916;-69
2022/08/06 08:11:55;;;;;;;;;;;15.70;93.60;;;;;;5050080;28;20253;-68
2022/08/06 08:14:22;;;;;;;;;;;15.70;93.00;;;;;;5050367;28;19909;-68
2022/08/06 08:16:49;;;;;;;;;;;15.70;93.40;;;;;;5050768;28;19913;-68
2022/08/06 08:19:34;;;;;;;;;;;15.70;94.10;;;;;;5054057;28;20233;-68
2022/08/06 08:22:21;;;;;;;;;;;15.70;93.50;;;;;;5052889;28;19944;-68
2022/08/06 08:24:48;;;;;;;;;;;15.70;93.50;;;;;;5053782;28;20518;-68
2022/08/06 08:27:15;;;;;;;;;;;15.70;93.10;;;;;;5053640;28;20283;-68
2022/08/06 08:29:43;;;;;;;;;;;15.70;93.50;;;;;;5053761;28;19917;-69
2022/08/06 08:32:10;;;;;;;;;;;15.70;94.40;;;;;;5053669;28;19909;-68
2022/08/06 08:34:36;;;;;;;;;;;15.70;94.20;;;;;;5053728;28;20422;-69
2022/08/06 08:37:03;;;;;;;;;;;15.70;94.00;;;;;;5053287;28;19908;-69
2022/08/06 08:39:30;;;;;;;;;;;15.70;93.90;;;;;;5053703;28;19977;-68
2022/08/06 08:42:09;;;;;;;;;;;15.70;93.60;;;;;;5072866;28;20290;-68
2022/08/06 08:44:36;;;;;;;;;;;15.60;93.40;;;;;;5073217;28;19951;-68
2022/08/06 08:47:03;;;;;;;;;;;15.60;93.60;;;;;;5073530;28;20019;-68
2022/08/06 08:49:39;;;;;;;;;;;15.60;93.60;;;;;;5072238;28;20019;-68
2022/08/06 08:52:08;;;;;;;;;;;15.60;93.90;;;;;;5059016;28;19917;-68
2022/08/06 08:54:35;;;;;;;;;;;15.60;93.60;;;;;;5073727;28;19950;-68
2022/08/06 08:57:03;;;;;;;;;;;15.50;94.40;;;;;;5072854;28;20286;-68
2022/08/06 08:59:31;;;;;;;;;;;15.50;94.00;;;;;;5073436;28;19912;-68
2022/08/06 09:01:58;;;;;;;;;;;15.40;93.80;;;;;;5072846;28;20252;-68
2022/08/06 09:04:26;;;;;;;;;;;15.40;94.60;;;;;;5073243;28;19916;-68
2022/08/06 09:06:53;;;;;;;;;;;15.40;94.40;;;;;;5074812;28;19916;-68
2022/08/06 09:09:20;;;;;;;;;;;15.40;93.80;;;;;;5075387;28;19912;-68
2022/08/06 09:11:47;;;;;;;;;;;15.40;94.10;;;;;;5074990;28;19912;-68
2022/08/06 09:14:13;;;;;;;;;;;15.30;95.00;;;;;;5075856;28;19908;-68
2022/08/06 09:16:40;;;;;;;;;;;15.30;94.40;;;;;;5075345;28;19955;-68
2022/08/06 09:19:07;;;;;;;;;;;15.20;94.00;;;;;;5075924;28;19909;-68
2022/08/06 09:21:34;;;;;;;;;;;15.20;94.00;;;;;;5074814;28;19912;-68
2022/08/06 09:24:01;;;;;;;;;;;15.20;94.20;;;;;;5075984;28;19913;-67
2022/08/06 09:26:27;;;;;;;;;;;15.20;94.60;;;;;;5074883;28;19912;-68
2022/08/06 09:28:54;;;;;;;;;;;15.20;94.60;;;;;;5075926;28;19935;-69
2022/08/06 09:31:21;;;;;;;;;;;15.10;94.70;;;;;;5074909;28;20275;-67
2022/08/06 09:33:56;;;;;;;;;;;15.10;94.70;;;;;;5076007;28;19908;-67
2022/08/06 09:36:23;;;;;;;;;;;15.10;94.70;;;;;;5075543;28;19909;-68
2022/08/06 09:38:51;;;;;;;;;;;15.10;95.30;;;;;;5076104;28;20286;-67
2022/08/06 09:41:18;;;;;;;;;;;15.00;95.50;;;;;;5076831;28;19915;-68
2022/08/06 09:43:49;;;;;;;;;;;15.00;94.80;;;;;;5078912;28;20457;-68
2022/08/06 09:46:17;;;;;;;;;;;14.90;94.70;;;;;;5075497;28;19923;-68
2022/08/06 09:48:59;;;;;;;;;;;15.00;94.90;;;;;;5077060;28;19916;-68
2022/08/06 09:51:26;;;;;;;;;;;14.90;95.50;;;;;;5080900;28;19909;-67
2022/08/06 09:53:54;;;;;;;;;;;14.90;94.80;;;;;;5084666;28;19912;-67
2022/08/06 09:56:21;;;;;;;;;;;14.90;95.20;;;;;;5079820;28;19912;-66
2022/08/06 09:58:48;;;;;;;;;;;14.90;95.10;;;;;;5075281;28;19915;-67
2022/08/06 10:01:15;;;;;;;;;;;14.90;94.80;;;;;;5074991;28;19908;-68
2022/08/06 10:03:42;;;;;;;;;;;14.80;95.20;;;;;;5074689;28;19909;-68
2022/08/06 10:06:10;;;;;;;;;;;14.80;96.10;;;;;;5073751;28;19913;-68
2022/08/06 10:08:38;;;;;;;;;;;14.80;95.00;;;;;;5075507;28;20290;-68
2022/08/06 10:11:05;;;;;;;;;;;14.70;95.40;;;;;;5074027;28;19913;-68
2022/08/06 10:13:32;;;;;;;;;;;14.70;95.40;;;;;;5074185;28;19919;-67
2022/08/06 10:16:00;;;;;;;;;;;14.70;95.90;;;;;;5073768;28;19916;-68
2022/08/06 10:18:30;;;;;;;;;;;14.70;95.60;;;;;;5074101;28;19963;-68
2022/08/06 10:21:04;;;;;;;;;;;14.70;95.90;;;;;;5073586;28;19955;-68
2022/08/06 10:23:32;;;;;;;;;;;14.60;95.70;;;;;;5074020;28;19915;-68
2022/08/06 10:25:59;;;;;;;;;;;14.60;96.00;;;;;;5073705;28;19915;-68
2022/08/06 10:28:26;;;;;;;;;;;14.50;96.20;;;;;;5073496;28;20328;-68
2022/08/06 10:30:54;;;;;;;;;;;14.50;95.70;;;;;;5072388;28;20425;-68
2022/08/06 10:33:22;;;;;;;;;;;14.50;96.40;;;;;;5073620;28;20359;-68
2022/08/06 10:35:52;;;;;;;;;;;14.50;96.40;;;;;;5073606;28;19913;-68
2022/08/06 10:38:21;;;;;;;;;;;14.50;96.40;;;;;;5072043;28;19951;-68
2022/08/06 10:40:49;;;;;;;;;;;14.50;95.80;;;;;;5070535;28;19912;-68
2022/08/06 10:43:16;;;;;;;;;;;14.40;95.90;;;;;;5071463;28;19908;-68
2022/08/06 10:45:43;;;;;;;;;;;14.40;96.00;;;;;;5071511;28;19921;-68
2022/08/06 10:48:11;;;;;;;;;;;14.40;96.10;;;;;;5068539;28;20374;-68
2022/08/06 10:50:38;;;;;;;;;;;14.40;96.20;;;;;;5051276;28;20339;-68
2022/08/06 10:53:05;;;;;;;;;;;14.40;96.10;;;;;;5058190;28;19913;-68
2022/08/06 10:55:32;;;;;;;;;;;14.50;96.50;;;;;;5050451;28;19908;-68
2022/08/06 10:57:59;;;;;;;;;;;14.40;95.70;;;;;;5050536;28;19909;-68
2022/08/06 11:00:27;;;;;;;;;;;14.40;95.90;;;;;;5050777;28;19909;-68
2022/08/06 11:03:12;;;;;;;;;;;14.30;96.50;;;;;;5050309;28;20351;-68
2022/08/06 11:05:39;;;;;;;;;;;14.40;96.20;;;;;;5050504;28;19934;-68
2022/08/06 11:08:06;;;;;;;;;;;14.40;96.20;;;;;;5050067;28;19924;-68
2022/08/06 11:10:48;;;;;;;;;;;14.40;96.10;;;;;;5050365;28;19949;-68
2022/08/06 11:13:24;;;;;;;;;;;14.40;96.00;;;;;;5050295;28;19956;-68
2022/08/06 11:15:51;;;;;;;;;;;14.30;96.20;;;;;;5050292;28;19912;-68
2022/08/06 11:18:18;;;;;;;;;;;14.30;96.20;;;;;;5049722;28;19909;-68
2022/08/06 11:20:45;;;;;;;;;;;14.30;96.30;;;;;;5050363;28;20367;-68
2022/08/06 11:23:12;;;;;;;;;;;14.30;96.40;;;;;;5050510;28;20411;-68
2022/08/06 11:25:40;;;;;;;;;;;14.20;96.10;;;;;;5050116;28;19908;-68
2022/08/06 11:28:08;;;;;;;;;;;14.20;96.20;;;;;;5049855;28;19975;-67
2022/08/06 11:30:40;;;;;;;;;;;14.20;96.70;;;;;;5049838;28;19923;-67
2022/08/06 11:33:07;;;;;;;;;;;14.20;96.30;;;;;;5050257;28;19913;-68
2022/08/06 11:35:33;;;;;;;;;;;14.20;96.70;;;;;;5050161;28;19909;-68
2022/08/06 11:38:01;;;;;;;;;;;14.20;96.30;;;;;;5050050;28;20390;-68
2022/08/06 11:40:28;;;;;;;;;;;14.20;96.30;;;;;;5049906;28;19909;-69
2022/08/06 11:42:55;;;;;;;;;;;14.20;96.60;;;;;;5049795;28;19978;-69
2022/08/06 11:45:23;;;;;;;;;;;14.20;97.20;;;;;;5065140;28;19936;-69
2022/08/06 11:48:05;;;;;;;;;;;14.30;97.00;;;;;;5049888;28;19928;-68
2022/08/06 11:50:32;;;;;;;;;;;14.30;96.70;;;;;;5049965;28;19945;-68
2022/08/06 11:52:59;;;;;;;;;;;14.30;97.00;;;;;;5052425;28;20473;-68
2022/08/06 11:55:26;;;;;;;;;;;14.40;96.90;;;;;;5053324;28;19913;-67
2022/08/06 11:58:12;;;;;;;;;;;14.30;97.10;;;;;;5053636;28;19913;-67
2022/08/06 12:00:54;;;;;;;;;;;14.40;97.20;;;;;;5053868;28;19915;-68
2022/08/06 12:03:40;;;;;;;;;;;14.40;96.70;;;;;;5053805;28;19915;-68
2022/08/06 12:06:23;;;;;;;;;;;14.40;96.80;;;;;;5053488;28;20322;-68
2022/08/06 12:09:25;;;;;;;;;;;14.40;97.40;;;;;;5053248;28;19921;-69
2022/08/06 12:11:52;;;;;;;;;;;14.30;97.50;;;;;;5051113;28;19909;-68
2022/08/06 12:14:38;;;;;;;;;;;14.30;96.90;;;;;;5052678;28;19992;-68
2022/08/06 12:17:12;;;;;;;;;;;14.20;97.00;;;;;;5052210;28;19917;-68
2022/08/06 12:19:42;;;;;;;;;;;14.20;97.00;;;;;;5053523;28;19912;-69
2022/08/06 12:22:09;;;;;;;;;;;14.20;97.20;;;;;;5053049;28;19913;-69
2022/08/06 12:24:36;;;;;;;;;;;14.20;97.30;;;;;;5053215;28;19919;-69
2022/08/06 12:27:06;;;;;;;;;;;14.20;98.00;;;;;;5053438;28;19966;-68
2022/08/06 12:29:33;;;;;;;;;;;14.20;97.20;;;;;;5053317;28;19916;-68
2022/08/06 12:32:00;;;;;;;;;;;14.10;97.50;;;;;;5053280;28;20432;-68
2022/08/06 12:34:28;;;;;;;;;;;14.10;97.90;;;;;;5051930;28;20286;-68
2022/08/06 12:36:56;;;;;;;;;;;14.10;97.90;;;;;;5053261;28;19951;-68
2022/08/06 12:40:23;;;;;;;;;;;14.10;98.10;;;;;;5053085;28;20291;-68
2022/08/06 12:42:23;;;;;;;;;;;14.10;98.70;;;;;;5053226;28;19920;-68
2022/08/06 12:44:50;;;;;;;;;;;14.00;98.20;;;;;;5053072;28;19974;-68
2022/08/06 12:47:16;;;;;;;;;;;14.00;98.60;;;;;;5053132;28;19923;-68
2022/08/06 12:49:43;;;;;;;;;;;14.10;98.90;;;;;;5052597;28;20356;-69
2022/08/06 12:52:16;;;;;;;;;;;14.10;98.70;;;;;;5052809;28;19916;-69
2022/08/06 12:54:43;;;;;;;;;;;14.10;98.50;;;;;;5053046;28;20509;-68
2022/08/06 12:57:19;;;;;;;;;;;14.00;98.70;;;;;;5052919;28;19912;-69
2022/08/06 12:59:47;;;;;;;;;;;14.00;98.80;;;;;;5052955;28;19963;-68
2022/08/06 13:02:14;;;;;;;;;;;14.00;98.60;;;;;;5052093;28;19909;-68
2022/08/06 13:04:43;;;;;;;;;;;14.00;99.00;;;;;;5051715;28;20348;-68
2022/08/06 13:07:10;;;;;;;;;;;14.00;98.70;;;;;;5052498;28;19966;-68
2022/08/06 13:09:37;;;;;;;;;;;14.00;98.60;;;;;;5052465;28;19912;-68
2022/08/06 13:12:17;;;;;;;;;;;14.00;98.70;;;;;;5052609;28;19920;-68
2022/08/06 13:14:56;;;;;;;;;;;14.00;98.70;;;;;;5052159;28;19909;-68
2022/08/06 13:17:23;;;;;;;;;;;14.00;99.00;;;;;;5052523;28;20444;-69
2022/08/06 13:19:53;;;;;;;;;;;14.00;99.20;;;;;;5052366;28;19915;-69
2022/08/06 13:22:21;;;;;;;;;;;14.00;98.90;;;;;;5052122;28;19941;-70
2022/08/06 13:24:48;;;;;;;;;;;14.00;98.90;;;;;;5052371;28;19995;-69
2022/08/06 13:27:15;;;;;;;;;;;14.00;99.00;;;;;;5051947;28;19927;-69
2022/08/06 13:30:01;;;;;;;;;;;14.00;98.60;;;;;;5052280;28;19934;-69
2022/08/06 13:32:28;;;;;;;;;;;13.90;99.10;;;;;;5052585;28;20344;-69
2022/08/06 13:34:56;;;;;;;;;;;13.90;99.50;;;;;;5052210;28;20439;-69
2022/08/06 13:37:41;;;;;;;;;;;13.90;99.20;;;;;;5052285;28;19909;-69
2022/08/06 13:40:07;;;;;;;;;;;13.90;99.20;;;;;;5051579;28;19913;-69
2022/08/06 13:42:47;;;;;;;;;;;13.90;99.50;;;;;;5052239;28;19913;-69
2022/08/06 13:45:21;;;;;;;;;;;13.80;99.60;;;;;;5051922;28;19925;-69
2022/08/06 13:47:52;;;;;;;;;;;13.80;99.10;;;;;;5051945;28;19959;-69
2022/08/06 13:50:19;;;;;;;;;;;13.80;99.60;;;;;;5083800;28;20275;-69
2022/08/06 13:52:46;;;;;;;;;;;13.80;99.50;;;;;;5051697;28;19917;-69
2022/08/06 13:55:13;;;;;;;;;;;13.70;99.40;;;;;;5062386;28;19908;-69
2022/08/06 13:57:40;;;;;;;;;;;13.70;99.50;;;;;;5094870;28;19955;-69
2022/08/06 14:00:07;;;;;;;;;;;13.70;99.20;;;;;;5094502;28;19957;-68
2022/08/06 14:02:34;;;;;;;;;;;13.70;99.70;;;;;;5093427;28;19908;-69
2022/08/06 14:05:03;;;;;;;;;;;13.70;99.10;;;;;;5094647;28;19909;-68
2022/08/06 14:07:30;;;;;;;;;;;13.70;99.60;;;;;;5094476;28;20373;-69
2022/08/06 14:09:57;;;;;;;;;;;13.60;99.30;;;;;;5094512;28;19908;-69
2022/08/06 14:12:23;;;;;;;;;;;13.50;99.50;;;;;;5094473;28;19916;-68
2022/08/06 14:14:50;;;;;;;;;;;13.50;99.30;;;;;;5094289;28;19908;-68
2022/08/06 14:17:17;;;;;;;;;;;13.40;99.70;;;;;;5094162;28;20295;-69
2022/08/06 14:19:44;;;;;;;;;;;13.10;99.90;;;;;;5094322;28;19994;-68
2022/08/06 14:22:11;;;;;;;;;;;13.00;99.90;;;;;;5094211;28;19986;-68
2022/08/06 14:24:37;;;;;;;;;;;12.90;99.90;;;;;;5094027;28;19975;-68
2022/08/06 14:27:05;;;;;;;;;;;13.00;99.90;;;;;;5094179;28;19955;-68
2022/08/06 14:29:31;;;;;;;;;;;13.00;99.90;;;;;;5094143;28;20392;-68
2022/08/06 14:31:58;;;;;;;;;;;13.00;99.90;;;;;;5094117;28;19908;-68